sensor_id;sensor_type;location;lat;lon;timestamp;pressure;altitude;pressure_sealevel;temperature;humidity
74466;BME280;62916;50.044;15.938;2023-02-22T00:02:25;99112.54;;;21.23;52.57
74466;BME280;62916;50.044;15.938;2023-02-22T00:04:57;99112.02;;;21.21;52.47
74466;BME280;62916;50.044;15.938;2023-02-22T00:07:28;99116.73;;;21.20;52.49
74466;BME280;62916;50.044;15.938;2023-02-22T00:09:58;99111.23;;;21.19;52.47
74466;BME280;62916;50.044;15.938;2023-02-22T00:12:29;99108.21;;;21.14;52.59
74466;BME280;62916;50.044;15.938;2023-02-22T00:15:00;99112.58;;;21.15;52.63
74466;BME280;62916;50.044;15.938;2023-02-22T00:17:31;99108.28;;;21.13;52.57
74466;BME280;62916;50.044;15.938;2023-02-22T00:20:02;99110.98;;;21.11;52.63
74466;BME280;62916;50.044;15.938;2023-02-22T00:22:35;99110.11;;;21.10;52.64
74466;BME280;62916;50.044;15.938;2023-02-22T00:25:06;99111.22;;;21.08;52.64
74466;BME280;62916;50.044;15.938;2023-02-22T00:27:38;99110.00;;;21.06;52.75
74466;BME280;62916;50.044;15.938;2023-02-22T00:30:14;99110.13;;;21.06;52.64
74466;BME280;62916;50.044;15.938;2023-02-22T00:32:48;99113.31;;;21.05;52.82
74466;BME280;62916;50.044;15.938;2023-02-22T00:35:22;99110.41;;;21.02;52.76
74466;BME280;62916;50.044;15.938;2023-02-22T00:37:56;99109.20;;;21.00;52.73
74466;BME280;62916;50.044;15.938;2023-02-22T00:40:28;99111.31;;;20.99;52.80
74466;BME280;62916;50.044;15.938;2023-02-22T00:43:01;99111.48;;;20.99;52.95
74466;BME280;62916;50.044;15.938;2023-02-22T00:45:34;99109.32;;;21.00;52.88
74466;BME280;62916;50.044;15.938;2023-02-22T00:48:06;99108.56;;;20.99;53.00
74466;BME280;62916;50.044;15.938;2023-02-22T00:50:38;99111.90;;;20.98;52.95
74466;BME280;62916;50.044;15.938;2023-02-22T00:53:09;99109.95;;;20.98;52.77
74466;BME280;62916;50.044;15.938;2023-02-22T00:55:41;99113.46;;;20.97;52.76
74466;BME280;62916;50.044;15.938;2023-02-22T00:58:11;99113.63;;;20.95;52.80
74466;BME280;62916;50.044;15.938;2023-02-22T01:00:43;99117.96;;;20.93;52.82
74466;BME280;62916;50.044;15.938;2023-02-22T01:03:16;99111.64;;;20.91;53.04
74466;BME280;62916;50.044;15.938;2023-02-22T01:05:48;99108.45;;;20.90;52.80
74466;BME280;62916;50.044;15.938;2023-02-22T01:08:19;99109.98;;;20.90;53.06
74466;BME280;62916;50.044;15.938;2023-02-22T01:10:49;99105.61;;;20.89;52.94
74466;BME280;62916;50.044;15.938;2023-02-22T01:13:21;99104.92;;;20.87;53.00
74466;BME280;62916;50.044;15.938;2023-02-22T01:15:52;99111.25;;;20.87;52.92
74466;BME280;62916;50.044;15.938;2023-02-22T01:18:25;99109.82;;;20.84;53.03
74466;BME280;62916;50.044;15.938;2023-02-22T01:20:56;99111.57;;;20.84;53.08
74466;BME280;62916;50.044;15.938;2023-02-22T01:23:27;99110.54;;;20.82;53.02
74466;BME280;62916;50.044;15.938;2023-02-22T01:25:58;99107.08;;;20.81;52.92
74466;BME280;62916;50.044;15.938;2023-02-22T01:28:28;99104.86;;;20.79;53.13
74466;BME280;62916;50.044;15.938;2023-02-22T01:31:00;99101.98;;;20.78;53.26
74466;BME280;62916;50.044;15.938;2023-02-22T01:33:32;99103.77;;;20.78;53.18
74466;BME280;62916;50.044;15.938;2023-02-22T01:36:03;99106.33;;;20.79;53.17
74466;BME280;62916;50.044;15.938;2023-02-22T01:38:40;99104.59;;;20.78;53.01
74466;BME280;62916;50.044;15.938;2023-02-22T01:41:11;99105.81;;;20.77;53.23
74466;BME280;62916;50.044;15.938;2023-02-22T01:43:49;99103.42;;;20.78;53.18
74466;BME280;62916;50.044;15.938;2023-02-22T01:46:23;99103.66;;;20.76;53.10
74466;BME280;62916;50.044;15.938;2023-02-22T01:48:57;99098.76;;;20.72;53.41
74466;BME280;62916;50.044;15.938;2023-02-22T01:51:31;99103.23;;;20.73;53.16
74466;BME280;62916;50.044;15.938;2023-02-22T01:54:07;99107.46;;;20.70;53.29
74466;BME280;62916;50.044;15.938;2023-02-22T01:56:44;99107.78;;;20.69;53.38
74466;BME280;62916;50.044;15.938;2023-02-22T01:59:19;99105.23;;;20.65;53.35
74466;BME280;62916;50.044;15.938;2023-02-22T02:01:51;99105.45;;;20.66;53.42
74466;BME280;62916;50.044;15.938;2023-02-22T02:04:23;99101.20;;;20.65;53.35
74466;BME280;62916;50.044;15.938;2023-02-22T02:06:56;99102.21;;;20.62;53.58
74466;BME280;62916;50.044;15.938;2023-02-22T02:09:32;99099.95;;;20.65;53.59
74466;BME280;62916;50.044;15.938;2023-02-22T02:12:09;99101.56;;;20.67;53.43
74466;BME280;62916;50.044;15.938;2023-02-22T02:14:41;99100.91;;;20.67;53.48
74466;BME280;62916;50.044;15.938;2023-02-22T02:17:14;99098.39;;;20.66;53.43
74466;BME280;62916;50.044;15.938;2023-02-22T02:19:46;99098.48;;;20.67;53.43
74466;BME280;62916;50.044;15.938;2023-02-22T02:22:26;99098.39;;;20.68;53.44
74466;BME280;62916;50.044;15.938;2023-02-22T02:25:27;99093.45;;;20.66;53.32
74466;BME280;62916;50.044;15.938;2023-02-22T02:28:41;99096.91;;;20.60;53.71
74466;BME280;62916;50.044;15.938;2023-02-22T02:31:58;99092.83;;;20.55;53.69
74466;BME280;62916;50.044;15.938;2023-02-22T02:34:39;99093.81;;;20.56;53.74
74466;BME280;62916;50.044;15.938;2023-02-22T02:37:20;99091.33;;;20.57;53.70
74466;BME280;62916;50.044;15.938;2023-02-22T02:39:59;99084.31;;;20.59;53.69
74466;BME280;62916;50.044;15.938;2023-02-22T02:42:33;99089.91;;;20.58;53.71
74466;BME280;62916;50.044;15.938;2023-02-22T02:45:09;99089.34;;;20.58;53.75
74466;BME280;62916;50.044;15.938;2023-02-22T02:47:44;99087.88;;;20.58;53.67
74466;BME280;62916;50.044;15.938;2023-02-22T02:50:20;99090.23;;;20.56;53.65
74466;BME280;62916;50.044;15.938;2023-02-22T02:52:55;99090.85;;;20.56;53.77
74466;BME280;62916;50.044;15.938;2023-02-22T02:55:28;99088.24;;;20.54;53.73
74466;BME280;62916;50.044;15.938;2023-02-22T02:58:01;99092.36;;;20.51;53.90
74466;BME280;62916;50.044;15.938;2023-02-22T03:00:36;99091.27;;;20.52;53.93
74466;BME280;62916;50.044;15.938;2023-02-22T03:03:20;99093.72;;;20.51;53.61
74466;BME280;62916;50.044;15.938;2023-02-22T03:06:09;99096.11;;;20.52;53.78
74466;BME280;62916;50.044;15.938;2023-02-22T03:08:46;99097.20;;;20.51;53.85
74466;BME280;62916;50.044;15.938;2023-02-22T03:11:23;99093.52;;;20.50;53.95
74466;BME280;62916;50.044;15.938;2023-02-22T03:14:00;99092.75;;;20.51;53.85
74466;BME280;62916;50.044;15.938;2023-02-22T03:16:40;99097.05;;;20.50;53.83
74466;BME280;62916;50.044;15.938;2023-02-22T03:19:20;99076.39;;;20.36;53.96
74466;BME280;62916;50.044;15.938;2023-02-22T03:21:59;99068.30;;;20.33;53.94
74466;BME280;62916;50.044;15.938;2023-02-22T03:24:35;99093.27;;;20.44;53.92
74466;BME280;62916;50.044;15.938;2023-02-22T03:27:10;99084.25;;;20.40;54.03
74466;BME280;62916;50.044;15.938;2023-02-22T03:29:44;99090.70;;;20.41;53.97
74466;BME280;62916;50.044;15.938;2023-02-22T03:32:17;99089.30;;;20.41;53.91
74466;BME280;62916;50.044;15.938;2023-02-22T03:34:53;99087.96;;;20.40;54.14
74466;BME280;62916;50.044;15.938;2023-02-22T03:37:29;99088.14;;;20.44;54.05
74466;BME280;62916;50.044;15.938;2023-02-22T03:40:04;99081.05;;;20.43;54.19
74466;BME280;62916;50.044;15.938;2023-02-22T03:42:47;99085.55;;;20.53;53.88
74466;BME280;62916;50.044;15.938;2023-02-22T03:45:23;99088.41;;;20.57;53.88
74466;BME280;62916;50.044;15.938;2023-02-22T03:47:59;99088.17;;;20.60;53.72
74466;BME280;62916;50.044;15.938;2023-02-22T03:50:34;99081.47;;;20.63;53.79
74466;BME280;62916;50.044;15.938;2023-02-22T03:53:06;99078.91;;;20.61;53.83
74466;BME280;62916;50.044;15.938;2023-02-22T03:55:37;99084.27;;;20.66;53.92
74466;BME280;62916;50.044;15.938;2023-02-22T03:58:11;99080.25;;;20.67;54.00
74466;BME280;62916;50.044;15.938;2023-02-22T04:00:43;99083.98;;;20.70;54.14
74466;BME280;62916;50.044;15.938;2023-02-22T04:03:14;99082.52;;;20.72;54.01
74466;BME280;62916;50.044;15.938;2023-02-22T04:05:46;99086.85;;;20.74;54.11
74466;BME280;62916;50.044;15.938;2023-02-22T04:08:17;99088.55;;;20.76;54.05
74466;BME280;62916;50.044;15.938;2023-02-22T04:10:48;99088.95;;;20.78;54.19
74466;BME280;62916;50.044;15.938;2023-02-22T04:13:19;99087.73;;;20.79;54.25
74466;BME280;62916;50.044;15.938;2023-02-22T04:15:50;99089.10;;;20.81;54.13
74466;BME280;62916;50.044;15.938;2023-02-22T04:18:21;99089.83;;;20.81;54.37
74466;BME280;62916;50.044;15.938;2023-02-22T04:20:51;99092.89;;;20.82;54.29
74466;BME280;62916;50.044;15.938;2023-02-22T04:23:22;99095.08;;;20.83;54.42
74466;BME280;62916;50.044;15.938;2023-02-22T04:25:55;99096.74;;;20.84;54.36
74466;BME280;62916;50.044;15.938;2023-02-22T04:28:27;99095.66;;;20.84;54.46
74466;BME280;62916;50.044;15.938;2023-02-22T04:30:58;99095.91;;;20.86;54.45
74466;BME280;62916;50.044;15.938;2023-02-22T04:33:28;99096.69;;;20.87;54.26
74466;BME280;62916;50.044;15.938;2023-02-22T04:35:59;99091.19;;;20.88;54.36
74466;BME280;62916;50.044;15.938;2023-02-22T04:38:30;99089.27;;;20.89;54.34
74466;BME280;62916;50.044;15.938;2023-02-22T04:41:01;99091.85;;;20.91;54.56
74466;BME280;62916;50.044;15.938;2023-02-22T04:43:31;99093.26;;;20.94;54.24
74466;BME280;62916;50.044;15.938;2023-02-22T04:46:02;99090.91;;;20.95;54.33
74466;BME280;62916;50.044;15.938;2023-02-22T04:48:33;99092.13;;;20.98;54.42
74466;BME280;62916;50.044;15.938;2023-02-22T04:51:05;99090.34;;;20.99;54.20
74466;BME280;62916;50.044;15.938;2023-02-22T04:53:37;99088.90;;;21.00;54.38
74466;BME280;62916;50.044;15.938;2023-02-22T04:56:08;99086.83;;;21.02;54.56
74466;BME280;62916;50.044;15.938;2023-02-22T04:58:38;99084.94;;;21.03;54.38
74466;BME280;62916;50.044;15.938;2023-02-22T05:01:10;99086.40;;;21.03;54.43
74466;BME280;62916;50.044;15.938;2023-02-22T05:03:41;99062.89;;;20.91;54.31
74466;BME280;62916;50.044;15.938;2023-02-22T05:06:12;99080.43;;;21.05;54.44
74466;BME280;62916;50.044;15.938;2023-02-22T05:08:42;99085.95;;;21.07;54.39
74466;BME280;62916;50.044;15.938;2023-02-22T05:11:13;99086.53;;;21.08;54.23
74466;BME280;62916;50.044;15.938;2023-02-22T05:13:45;99084.72;;;21.08;54.32
74466;BME280;62916;50.044;15.938;2023-02-22T05:16:16;99083.79;;;21.07;54.28
74466;BME280;62916;50.044;15.938;2023-02-22T05:18:47;99084.62;;;21.08;54.21
74466;BME280;62916;50.044;15.938;2023-02-22T05:21:18;99083.71;;;21.03;54.04
74466;BME280;62916;50.044;15.938;2023-02-22T05:23:49;99085.52;;;21.05;54.03
74466;BME280;62916;50.044;15.938;2023-02-22T05:26:20;99076.55;;;20.98;53.74
74466;BME280;62916;50.044;15.938;2023-02-22T05:28:51;99082.70;;;21.00;53.56
74466;BME280;62916;50.044;15.938;2023-02-22T05:31:22;99081.86;;;21.00;53.46
74466;BME280;62916;50.044;15.938;2023-02-22T05:33:53;99082.90;;;21.01;53.59
74466;BME280;62916;50.044;15.938;2023-02-22T05:36:24;99076.67;;;20.96;53.73
74466;BME280;62916;50.044;15.938;2023-02-22T05:38:59;99087.20;;;21.05;53.68
74466;BME280;62916;50.044;15.938;2023-02-22T05:41:32;99088.38;;;21.05;53.38
74466;BME280;62916;50.044;15.938;2023-02-22T05:44:03;99087.05;;;21.06;53.28
74466;BME280;62916;50.044;15.938;2023-02-22T05:46:34;99088.41;;;21.06;53.29
74466;BME280;62916;50.044;15.938;2023-02-22T05:49:05;99087.34;;;21.06;53.23
74466;BME280;62916;50.044;15.938;2023-02-22T05:51:36;99091.45;;;21.04;53.03
74466;BME280;62916;50.044;15.938;2023-02-22T05:54:09;99091.80;;;21.03;53.15
74466;BME280;62916;50.044;15.938;2023-02-22T05:56:40;99097.17;;;21.03;53.13
74466;BME280;62916;50.044;15.938;2023-02-22T05:59:11;99091.98;;;21.01;53.08
74466;BME280;62916;50.044;15.938;2023-02-22T06:01:41;99093.50;;;21.01;53.13
74466;BME280;62916;50.044;15.938;2023-02-22T06:04:12;99095.80;;;21.00;53.02
74466;BME280;62916;50.044;15.938;2023-02-22T06:06:43;99098.30;;;20.99;53.10
74466;BME280;62916;50.044;15.938;2023-02-22T06:09:15;99101.08;;;20.98;53.08
74466;BME280;62916;50.044;15.938;2023-02-22T06:11:46;99101.95;;;20.97;53.10
74466;BME280;62916;50.044;15.938;2023-02-22T06:14:17;99099.95;;;20.98;52.95
74466;BME280;62916;50.044;15.938;2023-02-22T06:16:56;99102.48;;;20.98;52.94
74466;BME280;62916;50.044;15.938;2023-02-22T06:19:28;99099.95;;;20.98;53.02
74466;BME280;62916;50.044;15.938;2023-02-22T06:21:59;99099.52;;;20.97;52.80
74466;BME280;62916;50.044;15.938;2023-02-22T06:24:31;99097.34;;;20.97;52.79
74466;BME280;62916;50.044;15.938;2023-02-22T06:27:03;99099.90;;;20.97;52.85
74466;BME280;62916;50.044;15.938;2023-02-22T06:29:34;99101.92;;;20.95;52.60
74466;BME280;62916;50.044;15.938;2023-02-22T06:32:05;99099.88;;;20.93;52.62
74466;BME280;62916;50.044;15.938;2023-02-22T06:34:36;99105.37;;;20.91;52.69
74466;BME280;62916;50.044;15.938;2023-02-22T06:37:09;99105.51;;;20.91;52.76
74466;BME280;62916;50.044;15.938;2023-02-22T06:39:40;99082.23;;;20.74;52.69
74466;BME280;62916;50.044;15.938;2023-02-22T06:42:11;99109.33;;;20.89;52.60
74466;BME280;62916;50.044;15.938;2023-02-22T06:44:42;99111.90;;;20.87;52.56
74466;BME280;62916;50.044;15.938;2023-02-22T06:47:12;99105.06;;;20.82;52.61
74466;BME280;62916;50.044;15.938;2023-02-22T06:49:43;99113.40;;;20.85;52.49
74466;BME280;62916;50.044;15.938;2023-02-22T06:52:14;99117.84;;;20.83;52.60
74466;BME280;62916;50.044;15.938;2023-02-22T06:54:45;99119.79;;;20.82;52.61
74466;BME280;62916;50.044;15.938;2023-02-22T06:57:17;99123.92;;;20.81;52.51
74466;BME280;62916;50.044;15.938;2023-02-22T06:59:47;99124.97;;;20.76;52.59
74466;BME280;62916;50.044;15.938;2023-02-22T07:02:18;99134.70;;;20.78;52.54
74466;BME280;62916;50.044;15.938;2023-02-22T07:04:49;99128.05;;;20.74;52.55
74466;BME280;62916;50.044;15.938;2023-02-22T07:07:22;99131.05;;;20.76;52.39
74466;BME280;62916;50.044;15.938;2023-02-22T07:09:53;99132.52;;;20.76;52.85
74466;BME280;62916;50.044;15.938;2023-02-22T07:12:24;99133.66;;;20.77;52.65
74466;BME280;62916;50.044;15.938;2023-02-22T07:14:56;99133.49;;;20.77;52.54
74466;BME280;62916;50.044;15.938;2023-02-22T07:17:27;99133.41;;;20.76;52.47
74466;BME280;62916;50.044;15.938;2023-02-22T07:19:58;99135.14;;;20.75;52.46
74466;BME280;62916;50.044;15.938;2023-02-22T07:22:29;99137.04;;;20.73;52.60
74466;BME280;62916;50.044;15.938;2023-02-22T07:25:00;99138.98;;;20.72;52.62
74466;BME280;62916;50.044;15.938;2023-02-22T07:27:31;99141.52;;;20.73;52.43
74466;BME280;62916;50.044;15.938;2023-02-22T07:30:02;99139.26;;;20.73;52.39
74466;BME280;62916;50.044;15.938;2023-02-22T07:32:33;99134.14;;;20.68;52.41
74466;BME280;62916;50.044;15.938;2023-02-22T07:35:05;99141.27;;;20.71;52.42
74466;BME280;62916;50.044;15.938;2023-02-22T07:37:36;99142.77;;;20.69;52.55
74466;BME280;62916;50.044;15.938;2023-02-22T07:40:09;99144.02;;;20.69;52.45
74466;BME280;62916;50.044;15.938;2023-02-22T07:42:53;99142.31;;;20.70;52.32
74466;BME280;62916;50.044;15.938;2023-02-22T07:45:26;99143.52;;;20.69;52.35
74466;BME280;62916;50.044;15.938;2023-02-22T07:47:57;99141.05;;;20.68;52.37
74466;BME280;62916;50.044;15.938;2023-02-22T07:50:30;99140.06;;;20.67;52.40
74466;BME280;62916;50.044;15.938;2023-02-22T07:53:02;99141.79;;;20.68;52.27
74466;BME280;62916;50.044;15.938;2023-02-22T07:55:34;99141.66;;;20.69;52.21
74466;BME280;62916;50.044;15.938;2023-02-22T07:58:08;99137.64;;;20.67;52.18
74466;BME280;62916;50.044;15.938;2023-02-22T08:00:43;99136.09;;;20.65;52.24
74466;BME280;62916;50.044;15.938;2023-02-22T08:03:18;99140.49;;;20.64;52.16
74466;BME280;62916;50.044;15.938;2023-02-22T08:05:51;99140.98;;;20.63;52.27
74466;BME280;62916;50.044;15.938;2023-02-22T08:08:22;99138.84;;;20.65;52.10
74466;BME280;62916;50.044;15.938;2023-02-22T08:10:53;99141.06;;;20.64;52.07
74466;BME280;62916;50.044;15.938;2023-02-22T08:13:24;99136.52;;;20.63;52.04
74466;BME280;62916;50.044;15.938;2023-02-22T08:15:55;99138.05;;;20.60;52.34
74466;BME280;62916;50.044;15.938;2023-02-22T08:18:27;99137.66;;;20.57;52.34
74466;BME280;62916;50.044;15.938;2023-02-22T08:20:58;99116.17;;;20.42;52.31
74466;BME280;62916;50.044;15.938;2023-02-22T08:23:31;99140.94;;;20.53;52.20
74466;BME280;62916;50.044;15.938;2023-02-22T08:26:06;99137.05;;;20.48;52.35
74466;BME280;62916;50.044;15.938;2023-02-22T08:28:37;99128.61;;;20.43;52.26
74466;BME280;62916;50.044;15.938;2023-02-22T08:31:08;99141.09;;;20.52;52.26
74466;BME280;62916;50.044;15.938;2023-02-22T08:33:39;99141.77;;;20.51;52.25
74466;BME280;62916;50.044;15.938;2023-02-22T08:36:11;99143.92;;;20.50;52.20
74466;BME280;62916;50.044;15.938;2023-02-22T08:38:41;99145.42;;;20.49;52.24
74466;BME280;62916;50.044;15.938;2023-02-22T08:41:12;99142.77;;;20.47;52.32
74466;BME280;62916;50.044;15.938;2023-02-22T08:43:43;99149.65;;;20.47;52.26
74466;BME280;62916;50.044;15.938;2023-02-22T08:46:14;99147.84;;;20.45;52.28
74466;BME280;62916;50.044;15.938;2023-02-22T08:48:51;99148.30;;;20.45;52.27
74466;BME280;62916;50.044;15.938;2023-02-22T08:51:22;99148.62;;;20.43;52.15
74466;BME280;62916;50.044;15.938;2023-02-22T08:53:55;99149.54;;;20.43;52.29
74466;BME280;62916;50.044;15.938;2023-02-22T08:56:26;99149.63;;;20.41;52.21
74466;BME280;62916;50.044;15.938;2023-02-22T08:58:58;99148.38;;;20.39;52.31
74466;BME280;62916;50.044;15.938;2023-02-22T09:01:29;99149.58;;;20.38;52.37
74466;BME280;62916;50.044;15.938;2023-02-22T09:04:02;99149.34;;;20.36;52.40
74466;BME280;62916;50.044;15.938;2023-02-22T09:06:33;99150.10;;;20.36;52.38
74466;BME280;62916;50.044;15.938;2023-02-22T09:09:04;99145.81;;;20.33;52.42
74466;BME280;62916;50.044;15.938;2023-02-22T09:11:34;99148.42;;;20.32;52.38
74466;BME280;62916;50.044;15.938;2023-02-22T09:14:05;99147.65;;;20.31;52.47
74466;BME280;62916;50.044;15.938;2023-02-22T09:16:36;99145.13;;;20.30;52.31
74466;BME280;62916;50.044;15.938;2023-02-22T09:19:07;99149.81;;;20.30;52.35
74466;BME280;62916;50.044;15.938;2023-02-22T09:21:38;99149.13;;;20.28;52.32
74466;BME280;62916;50.044;15.938;2023-02-22T09:24:09;99151.13;;;20.26;52.39
74466;BME280;62916;50.044;15.938;2023-02-22T09:26:46;99147.92;;;20.24;52.40
74466;BME280;62916;50.044;15.938;2023-02-22T09:29:23;99148.63;;;20.25;52.39
74466;BME280;62916;50.044;15.938;2023-02-22T09:31:55;99149.33;;;20.25;52.54
74466;BME280;62916;50.044;15.938;2023-02-22T09:34:27;99151.31;;;20.24;52.44
74466;BME280;62916;50.044;15.938;2023-02-22T09:36:58;99150.50;;;20.23;52.38
74466;BME280;62916;50.044;15.938;2023-02-22T09:39:29;99154.20;;;20.23;52.28
74466;BME280;62916;50.044;15.938;2023-02-22T09:42:10;99149.34;;;20.21;52.49
74466;BME280;62916;50.044;15.938;2023-02-22T09:44:46;99153.56;;;20.21;52.54
74466;BME280;62916;50.044;15.938;2023-02-22T09:47:20;99147.52;;;20.23;52.41
74466;BME280;62916;50.044;15.938;2023-02-22T09:50:04;99145.13;;;20.23;52.35
74466;BME280;62916;50.044;15.938;2023-02-22T09:52:53;99144.52;;;20.23;52.40
74466;BME280;62916;50.044;15.938;2023-02-22T09:55:32;99141.84;;;20.22;52.33
74466;BME280;62916;50.044;15.938;2023-02-22T09:58:08;99140.01;;;20.21;52.24
74466;BME280;62916;50.044;15.938;2023-02-22T10:00:42;99136.25;;;20.20;52.30
74466;BME280;62916;50.044;15.938;2023-02-22T10:03:22;99134.12;;;20.19;52.39
74466;BME280;62916;50.044;15.938;2023-02-22T10:05:57;99132.83;;;20.19;52.26
74466;BME280;62916;50.044;15.938;2023-02-22T10:08:32;99131.05;;;20.18;52.29
74466;BME280;62916;50.044;15.938;2023-02-22T10:11:11;99134.30;;;20.18;52.29
74466;BME280;62916;50.044;15.938;2023-02-22T10:13:54;99130.54;;;20.18;52.29
74466;BME280;62916;50.044;15.938;2023-02-22T10:16:31;99132.43;;;20.19;52.25
74466;BME280;62916;50.044;15.938;2023-02-22T10:19:23;99129.70;;;20.18;52.23
74466;BME280;62916;50.044;15.938;2023-02-22T10:22:16;99126.03;;;20.16;52.14
74466;BME280;62916;50.044;15.938;2023-02-22T10:24:58;99125.73;;;20.16;52.25
74466;BME280;62916;50.044;15.938;2023-02-22T10:27:32;99124.51;;;20.14;52.23
74466;BME280;62916;50.044;15.938;2023-02-22T10:30:14;99124.23;;;20.12;52.25
74466;BME280;62916;50.044;15.938;2023-02-22T10:32:57;99093.68;;;19.94;52.06
74466;BME280;62916;50.044;15.938;2023-02-22T10:35:31;99123.29;;;20.11;52.20
74466;BME280;62916;50.044;15.938;2023-02-22T10:38:13;99120.73;;;20.10;52.37
74466;BME280;62916;50.044;15.938;2023-02-22T10:40:49;99122.08;;;20.10;52.21
74466;BME280;62916;50.044;15.938;2023-02-22T10:43:21;99120.39;;;20.07;52.20
74466;BME280;62916;50.044;15.938;2023-02-22T10:45:56;99118.85;;;20.05;52.28
74466;BME280;62916;50.044;15.938;2023-02-22T10:48:32;99115.54;;;20.03;52.35
74466;BME280;62916;50.044;15.938;2023-02-22T10:51:08;99116.67;;;20.03;52.30
74466;BME280;62916;50.044;15.938;2023-02-22T10:53:39;99115.87;;;20.03;52.35
74466;BME280;62916;50.044;15.938;2023-02-22T10:56:13;99116.41;;;20.02;52.32
74466;BME280;62916;50.044;15.938;2023-02-22T10:58:51;99114.03;;;19.99;52.24
74466;BME280;62916;50.044;15.938;2023-02-22T11:01:26;99112.97;;;19.99;52.38
74466;BME280;62916;50.044;15.938;2023-02-22T11:04:00;99114.08;;;20.00;52.31
74466;BME280;62916;50.044;15.938;2023-02-22T11:06:34;99107.23;;;19.99;52.22
74466;BME280;62916;50.044;15.938;2023-02-22T11:09:10;99105.52;;;19.97;52.31
74466;BME280;62916;50.044;15.938;2023-02-22T11:11:43;99107.14;;;19.96;52.37
74466;BME280;62916;50.044;15.938;2023-02-22T11:14:26;99106.54;;;19.95;52.45
74466;BME280;62916;50.044;15.938;2023-02-22T11:16:58;99102.29;;;19.96;52.31
74466;BME280;62916;50.044;15.938;2023-02-22T11:19:31;99105.72;;;19.95;52.28
74466;BME280;62916;50.044;15.938;2023-02-22T11:22:17;99099.23;;;19.92;52.35
74466;BME280;62916;50.044;15.938;2023-02-22T11:24:52;99098.61;;;19.90;52.28
74466;BME280;62916;50.044;15.938;2023-02-22T11:27:30;99091.25;;;19.89;52.43
74466;BME280;62916;50.044;15.938;2023-02-22T11:30:23;99090.54;;;19.91;52.24
74466;BME280;62916;50.044;15.938;2023-02-22T11:32:56;99093.36;;;19.91;52.37
74466;BME280;62916;50.044;15.938;2023-02-22T11:35:38;99090.73;;;19.90;52.28
74466;BME280;62916;50.044;15.938;2023-02-22T11:38:16;99081.80;;;19.89;52.30
74466;BME280;62916;50.044;15.938;2023-02-22T11:41:15;99079.78;;;19.88;52.30
74466;BME280;62916;50.044;15.938;2023-02-22T11:43:48;99077.42;;;19.88;52.22
74466;BME280;62916;50.044;15.938;2023-02-22T11:46:21;99043.86;;;19.67;52.23
74466;BME280;62916;50.044;15.938;2023-02-22T11:49:01;99077.05;;;19.87;52.30
74466;BME280;62916;50.044;15.938;2023-02-22T11:51:44;99075.45;;;19.85;52.21
74466;BME280;62916;50.044;15.938;2023-02-22T11:54:25;99073.42;;;19.85;52.27
74466;BME280;62916;50.044;15.938;2023-02-22T11:57:14;99073.62;;;19.84;52.17
74466;BME280;62916;50.044;15.938;2023-02-22T12:00:03;99068.64;;;19.84;52.21
74466;BME280;62916;50.044;15.938;2023-02-22T12:02:54;99066.77;;;19.82;52.21
74466;BME280;62916;50.044;15.938;2023-02-22T12:05:31;99064.95;;;19.83;52.25
74466;BME280;62916;50.044;15.938;2023-02-22T12:08:22;99066.79;;;19.84;52.14
74466;BME280;62916;50.044;15.938;2023-02-22T12:11:03;99067.30;;;19.85;52.24
74466;BME280;62916;50.044;15.938;2023-02-22T12:13:47;99064.41;;;19.85;52.16
74466;BME280;62916;50.044;15.938;2023-02-22T12:16:30;99065.11;;;19.85;52.34
74466;BME280;62916;50.044;15.938;2023-02-22T12:19:18;99062.39;;;19.85;52.09
74466;BME280;62916;50.044;15.938;2023-02-22T12:21:55;99060.86;;;19.84;52.14
74466;BME280;62916;50.044;15.938;2023-02-22T12:24:33;99054.69;;;19.79;52.22
74466;BME280;62916;50.044;15.938;2023-02-22T12:27:10;99056.30;;;19.82;52.12
74466;BME280;62916;50.044;15.938;2023-02-22T12:29:45;99056.84;;;19.80;52.25
74466;BME280;62916;50.044;15.938;2023-02-22T12:32:27;99058.69;;;19.80;52.17
74466;BME280;62916;50.044;15.938;2023-02-22T12:35:08;99055.96;;;19.79;52.13
74466;BME280;62916;50.044;15.938;2023-02-22T12:37:50;99051.88;;;19.78;52.17
74466;BME280;62916;50.044;15.938;2023-02-22T12:40:29;99052.95;;;19.77;52.28
74466;BME280;62916;50.044;15.938;2023-02-22T12:43:09;99047.02;;;19.76;52.17
74466;BME280;62916;50.044;15.938;2023-02-22T12:45:49;99045.45;;;19.75;52.20
74466;BME280;62916;50.044;15.938;2023-02-22T12:48:34;99051.41;;;19.76;52.12
74466;BME280;62916;50.044;15.938;2023-02-22T12:51:16;99049.56;;;19.74;52.11
74466;BME280;62916;50.044;15.938;2023-02-22T12:53:57;99043.86;;;19.73;52.17
74466;BME280;62916;50.044;15.938;2023-02-22T12:56:35;99045.05;;;19.72;52.36
74466;BME280;62916;50.044;15.938;2023-02-22T12:59:11;99046.32;;;19.73;52.24
74466;BME280;62916;50.044;15.938;2023-02-22T13:01:48;99042.51;;;19.74;52.12
74466;BME280;62916;50.044;15.938;2023-02-22T13:04:20;99040.96;;;19.74;52.13
74466;BME280;62916;50.044;15.938;2023-02-22T13:06:58;99033.69;;;19.67;52.21
74466;BME280;62916;50.044;15.938;2023-02-22T13:10:01;99039.31;;;19.72;52.15
74466;BME280;62916;50.044;15.938;2023-02-22T13:12:39;99037.52;;;19.74;52.12
74466;BME280;62916;50.044;15.938;2023-02-22T13:15:17;99037.84;;;19.74;52.11
74466;BME280;62916;50.044;15.938;2023-02-22T13:17:55;99027.55;;;19.70;52.15
74466;BME280;62916;50.044;15.938;2023-02-22T13:20:33;99034.56;;;19.73;52.19
74466;BME280;62916;50.044;15.938;2023-02-22T13:23:10;99033.05;;;19.73;52.11
74466;BME280;62916;50.044;15.938;2023-02-22T13:25:47;99032.13;;;19.74;52.06
74466;BME280;62916;50.044;15.938;2023-02-22T13:28:27;99030.58;;;19.72;52.14
74466;BME280;62916;50.044;15.938;2023-02-22T13:31:14;99032.73;;;19.72;52.07